createdAt,value
2019-05-26T00:01:05.452Z,11.40
2019-05-26T00:03:34.106Z,11.40
2019-05-26T00:06:02.827Z,11.40
2019-05-26T00:08:31.477Z,11.40
2019-05-26T00:11:00.192Z,11.30
2019-05-26T00:13:28.955Z,11.40
2019-05-26T00:15:57.756Z,11.40
2019-05-26T00:18:26.413Z,11.40
2019-05-26T00:20:55.140Z,11.50
2019-05-26T00:23:23.873Z,11.40
2019-05-26T00:25:52.551Z,11.40
2019-05-26T00:28:21.284Z,11.50
2019-05-26T00:30:49.929Z,11.50
2019-05-26T00:33:18.713Z,11.50
2019-05-26T00:35:47.296Z,11.60
2019-05-26T00:38:17.152Z,11.50
2019-05-26T00:40:46.583Z,11.60
2019-05-26T00:43:15.299Z,11.50
2019-05-26T00:45:44.121Z,11.50
2019-05-26T00:48:13.061Z,11.70
2019-05-26T00:50:41.748Z,11.60
2019-05-26T00:53:10.470Z,11.60
2019-05-26T00:55:39.192Z,11.60
2019-05-26T00:58:07.920Z,11.60
2019-05-26T01:00:41.425Z,11.60
2019-05-26T01:03:11.277Z,11.60
2019-05-26T01:05:40.196Z,11.60
2019-05-26T01:08:09.543Z,11.60
2019-05-26T01:10:38.351Z,11.50
2019-05-26T01:13:07.068Z,11.50
2019-05-26T01:15:35.829Z,11.40
2019-05-26T01:18:05.655Z,11.40
2019-05-26T01:20:34.374Z,11.40
2019-05-26T01:23:03.207Z,11.40
2019-05-26T01:25:31.836Z,11.40
2019-05-26T01:28:00.584Z,11.40
2019-05-26T01:30:37.819Z,11.40
2019-05-26T01:33:07.014Z,11.40
2019-05-26T01:35:39.908Z,11.30
2019-05-26T01:38:22.522Z,11.40
2019-05-26T01:40:44.265Z,11.40
2019-05-26T01:43:13.423Z,11.40
2019-05-26T01:45:42.182Z,11.30
2019-05-26T01:48:11.024Z,11.30
2019-05-26T01:50:39.737Z,11.40
2019-05-26T01:53:08.488Z,11.40
2019-05-26T01:55:37.222Z,11.40
2019-05-26T01:58:06.230Z,11.40
2019-05-26T02:00:35.270Z,11.40
2019-05-26T02:03:04.406Z,11.40
2019-05-26T02:05:33.161Z,11.40
2019-05-26T02:08:01.885Z,11.30
2019-05-26T02:10:30.601Z,11.30
2019-05-26T02:12:59.268Z,11.30
2019-05-26T02:15:28.285Z,11.30
2019-05-26T02:17:57.059Z,11.30
2019-05-26T02:20:26.078Z,11.30
2019-05-26T02:22:54.808Z,11.30
2019-05-26T02:25:24.934Z,11.40
2019-05-26T02:27:53.668Z,11.30
2019-05-26T02:30:23.936Z,11.30
2019-05-26T02:32:52.738Z,11.30
2019-05-26T02:35:21.723Z,11.40
2019-05-26T02:37:50.445Z,11.40
2019-05-26T02:40:21.177Z,11.40
2019-05-26T02:42:49.955Z,11.40
2019-05-26T02:45:20.944Z,11.40
2019-05-26T02:47:49.770Z,11.40
2019-05-26T02:50:19.290Z,11.50
2019-05-26T02:52:48.021Z,11.50
2019-05-26T02:55:17.306Z,11.40
2019-05-26T02:57:46.024Z,11.40
2019-05-26T03:00:17.125Z,11.40
2019-05-26T03:02:46.151Z,11.40
2019-05-26T03:05:15.282Z,11.40
2019-05-26T03:07:44.266Z,11.40
2019-05-26T03:10:14.483Z,11.50
2019-05-26T03:12:43.620Z,11.50
2019-05-26T03:15:14.425Z,11.50
2019-05-26T03:17:43.376Z,11.50
2019-05-26T03:20:14.256Z,11.50
2019-05-26T03:22:43.278Z,11.50
2019-05-26T03:25:12.892Z,11.60
2019-05-26T03:27:41.526Z,11.60
2019-05-26T03:30:10.718Z,11.60
2019-05-26T03:32:40.405Z,11.50
2019-05-26T03:35:10.395Z,11.50
2019-05-26T03:37:39.124Z,11.60
2019-05-26T03:40:08.880Z,11.60
2019-05-26T03:42:37.511Z,11.60
2019-05-26T03:45:08.008Z,11.60
2019-05-26T03:47:36.729Z,11.60
2019-05-26T03:50:09.865Z,11.70
2019-05-26T03:52:38.488Z,11.60
2019-05-26T03:55:07.817Z,11.60
2019-05-26T03:57:36.534Z,11.70
2019-05-26T04:00:07.012Z,11.60
2019-05-26T04:02:35.746Z,11.60
2019-05-26T04:05:06.375Z,11.70
2019-05-26T04:07:35.056Z,11.70
2019-05-26T04:10:07.877Z,11.70
2019-05-26T04:12:36.556Z,11.70
2019-05-26T04:15:06.813Z,11.80
2019-05-26T04:17:35.390Z,11.70
2019-05-26T04:20:06.140Z,11.80
2019-05-26T04:22:34.874Z,11.80
2019-05-26T04:25:05.404Z,11.80
2019-05-26T04:27:34.145Z,11.90
2019-05-26T04:30:02.849Z,11.90
2019-05-26T04:32:31.711Z,11.90
2019-05-26T04:35:00.505Z,11.90
2019-05-26T04:37:29.241Z,11.90
2019-05-26T04:39:57.846Z,12.00
2019-05-26T04:42:26.569Z,12.00
2019-05-26T04:44:55.286Z,12.10
2019-05-26T04:47:24.002Z,12.20
2019-05-26T04:49:52.915Z,12.10
2019-05-26T04:52:21.671Z,12.10
2019-05-26T04:54:50.336Z,12.10
2019-05-26T04:57:19.137Z,12.00
2019-05-26T04:59:47.716Z,12.10
2019-05-26T05:02:16.453Z,12.20
2019-05-26T05:04:46.910Z,12.20
2019-05-26T05:07:15.660Z,12.20
2019-05-26T05:09:44.265Z,12.20
2019-05-26T05:12:12.995Z,12.20
2019-05-26T05:14:41.676Z,12.30
2019-05-26T05:17:10.401Z,12.30
2019-05-26T05:19:39.054Z,12.30
2019-05-26T05:22:07.781Z,12.30
2019-05-26T05:24:36.474Z,12.40
2019-05-26T05:27:05.206Z,12.30
2019-05-26T05:29:33.802Z,12.30
2019-05-26T05:32:02.546Z,12.30
2019-05-26T05:34:31.235Z,12.40
2019-05-26T05:36:59.948Z,12.40
2019-05-26T05:39:28.614Z,12.40
2019-05-26T05:41:57.299Z,12.40
2019-05-26T05:44:26.229Z,12.50
2019-05-26T05:46:54.809Z,12.50
2019-05-26T05:49:23.537Z,12.50
2019-05-26T05:51:52.255Z,12.60
2019-05-26T05:54:20.973Z,12.70
2019-05-26T05:56:49.987Z,12.60
2019-05-26T05:59:18.708Z,12.70
2019-05-26T06:01:47.373Z,12.80
2019-05-26T06:04:17.580Z,12.90
2019-05-26T06:06:46.301Z,13.00
2019-05-26T06:09:15.024Z,13.00
2019-05-26T06:11:43.636Z,13.00
2019-05-26T06:14:12.362Z,13.10
2019-05-26T06:16:41.050Z,13.20
2019-05-26T06:19:09.752Z,13.40
2019-05-26T06:21:38.385Z,13.60
2019-05-26T06:24:07.114Z,13.60
2019-05-26T06:26:35.851Z,13.60
2019-05-26T06:29:04.609Z,13.60
2019-05-26T06:31:33.338Z,13.40
2019-05-26T06:34:02.920Z,13.60
2019-05-26T06:36:31.666Z,13.60
2019-05-26T06:39:00.385Z,13.70
2019-05-26T06:41:33.418Z,13.90
2019-05-26T06:43:59.468Z,14.10
2019-05-26T06:46:29.260Z,14.10
2019-05-26T06:48:57.990Z,14.20
2019-05-26T06:51:26.640Z,14.20
2019-05-26T06:53:55.369Z,14.20
2019-05-26T06:56:24.109Z,14.10
2019-05-26T06:58:52.872Z,14.20
2019-05-26T07:01:21.610Z,14.20
2019-05-26T07:03:50.226Z,14.90
2019-05-26T07:06:18.956Z,15.30
2019-05-26T07:08:47.684Z,15.50
2019-05-26T07:11:16.392Z,15.40
2019-05-26T07:13:45.044Z,15.80
2019-05-26T07:16:13.823Z,16.20
2019-05-26T07:18:42.480Z,16.20
2019-05-26T07:21:11.215Z,15.70
2019-05-26T07:23:39.952Z,15.80
2019-05-26T07:26:08.681Z,15.40
2019-05-26T07:28:37.413Z,15.90
2019-05-26T07:31:06.136Z,16.00
2019-05-26T07:33:34.869Z,16.00
2019-05-26T07:36:04.512Z,16.10
2019-05-26T07:38:33.101Z,16.60
2019-05-26T07:41:01.819Z,16.70
2019-05-26T07:43:30.537Z,16.10
2019-05-26T07:45:59.263Z,15.90
2019-05-26T07:48:27.929Z,15.80
2019-05-26T07:50:56.641Z,15.70
2019-05-26T07:53:25.366Z,15.60
2019-05-26T07:55:54.085Z,15.50
2019-05-26T07:58:22.684Z,15.40
2019-05-26T08:00:51.536Z,15.30
2019-05-26T08:03:20.144Z,15.40
2019-05-26T08:05:48.873Z,15.70
2019-05-26T08:08:17.605Z,15.70
2019-05-26T08:10:46.323Z,15.90
2019-05-26T08:13:15.147Z,15.90
2019-05-26T08:15:43.966Z,15.70
2019-05-26T08:18:12.617Z,15.50
2019-05-26T08:20:42.919Z,15.50
2019-05-26T08:23:11.649Z,15.50
2019-05-26T08:25:40.301Z,15.40
2019-05-26T08:28:09.024Z,15.40
2019-05-26T08:30:37.612Z,15.50
2019-05-26T08:33:06.343Z,15.50
2019-05-26T08:35:35.062Z,15.50
2019-05-26T08:38:03.852Z,15.50
2019-05-26T08:40:32.682Z,15.40
2019-05-26T08:43:01.416Z,15.30
2019-05-26T08:45:30.124Z,15.40
2019-05-26T08:47:58.956Z,15.40
2019-05-26T08:50:27.645Z,15.50
2019-05-26T08:52:56.368Z,15.30
2019-05-26T08:55:25.093Z,15.30
2019-05-26T08:57:53.920Z,15.30
2019-05-26T09:00:24.052Z,15.10
2019-05-26T09:02:52.972Z,15.00
2019-05-26T09:05:21.896Z,15.00
2019-05-26T09:07:50.722Z,15.00
2019-05-26T09:10:19.482Z,15.00
2019-05-26T09:13:00.193Z,15.10
2019-05-26T09:15:19.556Z,15.10
2019-05-26T09:17:48.299Z,14.90
2019-05-26T09:20:18.321Z,14.90
2019-05-26T09:22:47.043Z,14.90
2019-05-26T09:25:16.222Z,14.90
2019-05-26T09:27:44.947Z,15.00
2019-05-26T09:30:13.962Z,15.00
2019-05-26T09:32:42.760Z,15.10
2019-05-26T09:35:11.582Z,15.10
2019-05-26T09:37:40.337Z,15.00
2019-05-26T09:40:09.961Z,15.00
2019-05-26T09:42:38.568Z,15.00
2019-05-26T09:45:08.697Z,15.00
2019-05-26T09:47:37.442Z,15.10
2019-05-26T09:50:07.580Z,15.00
2019-05-26T09:52:36.607Z,15.00
2019-05-26T09:55:10.013Z,15.00
2019-05-26T09:57:38.748Z,15.00
2019-05-26T10:00:08.959Z,14.90
2019-05-26T10:02:37.775Z,14.90
2019-05-26T10:05:07.300Z,14.80
2019-05-26T10:07:36.025Z,14.90
2019-05-26T10:10:08.484Z,14.80
2019-05-26T10:12:37.328Z,14.80
2019-05-26T10:15:10.066Z,14.90
2019-05-26T10:17:38.731Z,15.00
2019-05-26T10:20:11.009Z,15.20
2019-05-26T10:22:39.757Z,15.10
2019-05-26T10:25:08.880Z,14.90
2019-05-26T10:27:37.623Z,14.80
2019-05-26T10:30:11.431Z,14.70
2019-05-26T10:32:40.260Z,14.70
2019-05-26T10:35:10.076Z,14.60
2019-05-26T10:37:38.848Z,14.40
2019-05-26T10:40:08.588Z,14.20
2019-05-26T10:42:37.268Z,14.10
2019-05-26T10:45:08.302Z,14.10
2019-05-26T10:47:36.988Z,14.20
2019-05-26T10:50:10.253Z,14.30
2019-05-26T10:52:38.916Z,14.30
2019-05-26T10:55:08.241Z,14.30
2019-05-26T10:57:36.897Z,14.30
2019-05-26T11:00:09.605Z,14.30
2019-05-26T11:02:38.440Z,14.30
2019-05-26T11:05:08.196Z,14.20
2019-05-26T11:07:36.926Z,14.20
2019-05-26T11:10:07.419Z,14.20
2019-05-26T11:12:36.158Z,14.10
2019-05-26T11:15:09.351Z,14.00
2019-05-26T11:17:38.092Z,13.80
2019-05-26T11:20:11.470Z,13.90
2019-05-26T11:22:40.184Z,13.80
2019-05-26T11:25:09.610Z,13.80
2019-05-26T11:27:38.334Z,13.70
2019-05-26T11:30:11.546Z,13.80
2019-05-26T11:32:40.278Z,13.90
2019-05-26T11:35:09.326Z,13.80
2019-05-26T11:37:38.066Z,13.70
2019-05-26T11:40:07.982Z,13.70
2019-05-26T11:42:36.792Z,13.60
2019-05-26T11:45:08.886Z,13.20
2019-05-26T11:47:37.612Z,13.00
2019-05-26T11:50:08.129Z,12.90
2019-05-26T11:52:36.909Z,13.00
2019-05-26T11:55:08.836Z,13.10
2019-05-26T11:57:37.797Z,13.10
2019-05-26T12:00:10.041Z,13.20
2019-05-26T12:02:39.241Z,13.20
2019-05-26T12:05:09.736Z,13.20
2019-05-26T12:07:38.456Z,13.20
2019-05-26T12:10:08.073Z,13.20
2019-05-26T12:12:36.945Z,13.20
2019-05-26T12:15:08.174Z,13.30
2019-05-26T12:17:36.261Z,13.20
2019-05-26T12:20:06.749Z,13.30
2019-05-26T12:22:35.403Z,13.20
2019-05-26T12:25:08.376Z,13.50
2019-05-26T12:27:37.123Z,13.60
2019-05-26T12:30:08.289Z,13.70
2019-05-26T12:32:37.016Z,13.90
2019-05-26T12:35:09.497Z,13.90
2019-05-26T12:37:38.216Z,13.80
2019-05-26T12:40:08.613Z,13.60
2019-05-26T12:42:37.273Z,13.60
2019-05-26T12:45:08.070Z,13.60
2019-05-26T12:47:36.799Z,13.60
2019-05-26T12:50:07.984Z,13.60
2019-05-26T12:52:36.908Z,13.60
2019-05-26T12:55:09.258Z,13.50
2019-05-26T12:57:37.950Z,13.50
2019-05-26T13:00:10.788Z,13.50
2019-05-26T13:02:39.631Z,13.50
2019-05-26T13:05:08.753Z,13.40
2019-05-26T13:07:38.419Z,13.40
2019-05-26T13:10:09.051Z,13.30
2019-05-26T13:12:37.774Z,13.30
2019-05-26T13:15:09.064Z,13.30
2019-05-26T13:17:36.942Z,13.30
2019-05-26T13:20:07.463Z,13.40
2019-05-26T13:22:36.503Z,13.30
2019-05-26T13:25:07.389Z,13.30
2019-05-26T13:27:36.126Z,13.20
2019-05-26T13:30:10.133Z,13.30
2019-05-26T13:32:38.857Z,13.20
2019-05-26T13:35:08.285Z,13.10
2019-05-26T13:37:36.918Z,13.20
2019-05-26T13:40:08.214Z,13.20
2019-05-26T13:42:37.422Z,13.40
2019-05-26T13:45:21.303Z,13.20
2019-05-26T13:47:38.508Z,13.30
2019-05-26T13:50:08.237Z,13.20
2019-05-26T13:52:36.966Z,13.20
2019-05-26T13:55:07.834Z,13.10
2019-05-26T13:57:36.553Z,13.00
2019-05-26T14:00:09.751Z,12.90
2019-05-26T14:02:38.588Z,12.90
2019-05-26T14:05:07.825Z,12.90
2019-05-26T14:07:36.549Z,12.90
2019-05-26T14:10:08.202Z,12.80
2019-05-26T14:12:36.932Z,12.90
2019-05-26T14:15:09.587Z,13.00
2019-05-26T14:17:39.342Z,12.90
2019-05-26T14:20:09.073Z,12.90
2019-05-26T14:22:37.817Z,12.90
2019-05-26T14:25:08.040Z,12.90
2019-05-26T14:27:36.772Z,12.80
2019-05-26T14:30:06.862Z,12.80
2019-05-26T14:32:35.576Z,12.90
2019-05-26T14:35:05.804Z,12.80
2019-05-26T14:37:34.569Z,12.60
2019-05-26T14:40:04.736Z,12.60
2019-05-26T14:42:33.532Z,12.60
2019-05-26T14:45:04.169Z,12.60
2019-05-26T14:47:34.119Z,12.70
2019-05-26T14:50:02.785Z,12.60
2019-05-26T14:52:31.467Z,12.50
2019-05-26T14:55:00.373Z,12.50
2019-05-26T14:57:31.012Z,12.30
2019-05-26T14:59:59.513Z,12.20
2019-05-26T15:02:28.246Z,12.20
2019-05-26T15:04:57.055Z,12.30
2019-05-26T15:07:25.716Z,12.40
2019-05-26T15:09:54.444Z,12.40
2019-05-26T15:12:23.169Z,12.40
2019-05-26T15:14:51.828Z,12.30
2019-05-26T15:17:20.469Z,12.30
2019-05-26T15:19:49.290Z,12.40
2019-05-26T15:22:18.009Z,12.30
2019-05-26T15:24:46.729Z,12.30
2019-05-26T15:27:15.380Z,12.30
2019-05-26T15:29:44.116Z,12.40
2019-05-26T15:32:12.777Z,12.30
2019-05-26T15:34:41.500Z,12.20
2019-05-26T15:37:10.238Z,12.30
2019-05-26T15:39:38.887Z,12.10
2019-05-26T15:42:08.390Z,12.10
2019-05-26T15:44:37.437Z,12.00
2019-05-26T15:47:06.383Z,12.00
2019-05-26T15:49:35.030Z,12.00
2019-05-26T15:52:03.780Z,12.10
2019-05-26T15:54:32.504Z,12.10
2019-05-26T15:57:01.230Z,12.10
2019-05-26T15:59:34.877Z,12.00
2019-05-26T16:02:05.029Z,12.00
2019-05-26T16:04:33.774Z,11.90
2019-05-26T16:07:02.473Z,11.90
2019-05-26T16:09:31.280Z,11.90
2019-05-26T16:11:59.923Z,11.90
2019-05-26T16:14:28.640Z,11.90
2019-05-26T16:16:57.336Z,11.80
2019-05-26T16:19:26.056Z,11.70
2019-05-26T16:21:54.710Z,11.70
2019-05-26T16:24:23.384Z,11.60
2019-05-26T16:26:52.111Z,11.50
2019-05-26T16:29:20.903Z,11.40
2019-05-26T16:31:49.620Z,11.30
2019-05-26T16:34:18.364Z,11.30
2019-05-26T16:36:47.092Z,11.30
2019-05-26T16:39:15.824Z,11.30
2019-05-26T16:41:44.475Z,11.30
2019-05-26T16:44:13.202Z,11.40
2019-05-26T16:46:55.501Z,11.50
2019-05-26T16:49:12.289Z,11.50
2019-05-26T16:51:40.940Z,11.50
2019-05-26T16:54:09.627Z,11.60
2019-05-26T16:56:38.305Z,11.60
2019-05-26T16:59:07.020Z,11.60
2019-05-26T17:01:35.777Z,11.60
2019-05-26T17:04:04.492Z,11.60
2019-05-26T17:06:33.244Z,11.60
2019-05-26T17:09:02.033Z,11.60
2019-05-26T17:11:30.688Z,11.60
2019-05-26T17:13:59.416Z,11.50
2019-05-26T17:16:28.070Z,11.30
2019-05-26T17:18:58.489Z,11.20
2019-05-26T17:21:27.093Z,11.20
2019-05-26T17:23:55.854Z,11.30
2019-05-26T17:26:24.505Z,11.30
2019-05-26T17:28:53.152Z,11.30
2019-05-26T17:31:21.895Z,11.30
2019-05-26T17:33:50.564Z,11.30
2019-05-26T17:36:19.369Z,11.30
2019-05-26T17:38:48.152Z,11.20
2019-05-26T17:41:16.972Z,11.20
2019-05-26T17:43:45.700Z,11.30
2019-05-26T17:46:15.262Z,11.30
2019-05-26T17:48:44.261Z,11.30
2019-05-26T17:51:12.992Z,11.30
2019-05-26T17:53:41.655Z,11.30
2019-05-26T17:56:10.389Z,11.10
2019-05-26T17:58:39.157Z,11.00
2019-05-26T18:01:07.814Z,11.00
2019-05-26T18:03:36.549Z,10.90
2019-05-26T18:06:05.277Z,10.80
2019-05-26T18:08:36.341Z,10.80
2019-05-26T18:11:04.334Z,10.70
2019-05-26T18:13:33.053Z,10.60
2019-05-26T18:16:01.786Z,10.60
2019-05-26T18:18:30.509Z,10.50
2019-05-26T18:20:59.249Z,10.50
2019-05-26T18:23:28.080Z,10.40
2019-05-26T18:25:56.865Z,10.40
2019-05-26T18:28:25.584Z,10.40
2019-05-26T18:30:54.333Z,10.40
2019-05-26T18:33:23.002Z,10.30
2019-05-26T18:35:51.731Z,10.30
2019-05-26T18:38:20.381Z,10.30
2019-05-26T18:40:49.113Z,10.30
2019-05-26T18:43:17.838Z,10.30
2019-05-26T18:45:46.598Z,10.20
2019-05-26T18:48:15.391Z,10.20
2019-05-26T18:50:44.113Z,10.30
2019-05-26T18:53:12.913Z,10.30
2019-05-26T18:55:41.568Z,10.30
2019-05-26T18:58:10.313Z,10.30
2019-05-26T19:00:39.033Z,10.30
2019-05-26T19:03:07.774Z,10.30
2019-05-26T19:05:38.446Z,10.20
2019-05-26T19:08:06.813Z,10.20
2019-05-26T19:10:35.636Z,10.10
2019-05-26T19:13:05.191Z,10.10
2019-05-26T19:15:33.896Z,10.20
2019-05-26T19:18:16.752Z,10.10
2019-05-26T19:20:33.052Z,10.20
2019-05-26T19:23:01.796Z,10.20
2019-05-26T19:25:30.620Z,10.20
2019-05-26T19:27:59.278Z,10.20
2019-05-26T19:30:27.932Z,10.20
2019-05-26T19:32:56.585Z,10.10
2019-05-26T19:35:25.373Z,10.20
2019-05-26T19:37:54.064Z,10.10
2019-05-26T19:40:22.773Z,10.20
2019-05-26T19:42:51.500Z,10.20
2019-05-26T19:45:20.227Z,10.20
2019-05-26T19:47:48.901Z,10.20
2019-05-26T19:50:18.516Z,10.30
2019-05-26T19:52:49.732Z,10.20
2019-05-26T19:55:17.680Z,10.30
2019-05-26T19:57:46.329Z,10.30
2019-05-26T20:00:17.046Z,10.30
2019-05-26T20:02:45.766Z,10.30
2019-05-26T20:05:14.891Z,10.30
2019-05-26T20:07:43.608Z,10.30
2019-05-26T20:10:12.637Z,10.30
2019-05-26T20:12:41.363Z,10.30
2019-05-26T20:15:10.709Z,10.30
2019-05-26T20:17:39.432Z,10.30
2019-05-26T20:20:09.949Z,10.30
2019-05-26T20:22:39.273Z,10.40
2019-05-26T20:25:11.217Z,10.40
2019-05-26T20:27:39.953Z,10.40
2019-05-26T20:30:09.471Z,10.40
2019-05-26T20:32:38.285Z,10.40
2019-05-26T20:35:07.608Z,10.40
2019-05-26T20:37:36.568Z,10.40
2019-05-26T20:40:09.204Z,10.40
2019-05-26T20:42:37.850Z,10.40
2019-05-26T20:45:10.216Z,10.40
2019-05-26T20:47:39.150Z,10.40
2019-05-26T20:50:27.689Z,10.40
2019-05-26T20:52:41.727Z,10.30
2019-05-26T20:55:10.740Z,10.40
2019-05-26T20:57:39.470Z,10.40
2019-05-26T21:00:10.449Z,10.40
2019-05-26T21:02:39.621Z,10.40
2019-05-26T21:05:09.450Z,10.40
2019-05-26T21:07:38.164Z,10.40
2019-05-26T21:10:07.386Z,10.40
2019-05-26T21:12:36.114Z,10.40
2019-05-26T21:15:06.940Z,10.30
2019-05-26T21:17:35.656Z,10.40
2019-05-26T21:20:07.318Z,10.30
2019-05-26T21:22:36.050Z,10.30
2019-05-26T21:25:06.672Z,10.30
2019-05-26T21:27:35.367Z,10.30
2019-05-26T21:30:06.484Z,10.30
2019-05-26T21:32:35.213Z,10.30
2019-05-26T21:35:06.825Z,10.30
2019-05-26T21:37:35.607Z,10.30
2019-05-26T21:40:05.648Z,10.20
2019-05-26T21:42:34.372Z,10.20
2019-05-26T21:45:03.188Z,10.20
2019-05-26T21:47:31.840Z,10.20
2019-05-26T21:50:00.493Z,10.20
2019-05-26T21:52:29.261Z,10.20
2019-05-26T21:54:57.857Z,10.10
2019-05-26T21:57:26.681Z,10.20
2019-05-26T21:59:55.533Z,10.10
2019-05-26T22:02:24.252Z,10.20
2019-05-26T22:04:53.032Z,10.20
2019-05-26T22:07:21.690Z,10.20
2019-05-26T22:09:50.420Z,10.20
2019-05-26T22:12:19.223Z,10.20
2019-05-26T22:14:47.945Z,10.10
2019-05-26T22:17:16.645Z,10.20
2019-05-26T22:19:45.296Z,10.20
2019-05-26T22:22:14.022Z,10.10
2019-05-26T22:24:42.684Z,10.10
2019-05-26T22:27:11.340Z,10.10
2019-05-26T22:29:40.093Z,10.10
2019-05-26T22:32:08.884Z,10.10
2019-05-26T22:34:37.533Z,10.10
2019-05-26T22:37:06.186Z,10.10
2019-05-26T22:39:34.862Z,10.10
2019-05-26T22:42:03.540Z,10.10
2019-05-26T22:44:32.332Z,10.10
2019-05-26T22:47:01.050Z,10.10
2019-05-26T22:49:29.716Z,10.10
2019-05-26T22:51:58.440Z,10.10
2019-05-26T22:54:27.192Z,10.00
2019-05-26T22:56:55.849Z,10.00
2019-05-26T22:59:24.493Z,10.00
2019-05-26T23:01:53.216Z,10.00
2019-05-26T23:04:21.945Z,10.00
2019-05-26T23:06:50.639Z,10.00
2019-05-26T23:09:19.391Z,10.00
2019-05-26T23:11:48.038Z,10.00
2019-05-26T23:14:16.726Z,10.00
2019-05-26T23:16:45.450Z,10.00
2019-05-26T23:19:19.353Z,10.00
2019-05-26T23:21:44.461Z,10.00
2019-05-26T23:24:13.400Z,9.90
2019-05-26T23:26:42.062Z,9.90
2019-05-26T23:29:10.713Z,9.90
2019-05-26T23:31:39.400Z,9.90
2019-05-26T23:34:08.116Z,9.80
2019-05-26T23:36:36.780Z,9.80
2019-05-26T23:39:07.050Z,9.80
2019-05-26T23:41:35.688Z,9.80
2019-05-26T23:44:04.441Z,9.80
2019-05-26T23:46:33.081Z,9.80
2019-05-26T23:49:01.738Z,9.80
2019-05-26T23:51:30.396Z,9.70
2019-05-26T23:53:59.064Z,9.70
2019-05-26T23:56:27.744Z,9.70
2019-05-26T23:58:56.397Z,9.70
